createdAt,value
2018-02-10T00:00:24.361Z,1018.84
2018-02-10T00:01:24.367Z,1018.86
2018-02-10T00:02:24.438Z,1018.84
2018-02-10T00:03:24.412Z,1018.86
2018-02-10T00:04:24.400Z,1018.88
2018-02-10T00:05:24.474Z,1018.89
2018-02-10T00:06:24.422Z,1018.91
2018-02-10T00:07:24.409Z,1018.89
2018-02-10T00:08:24.418Z,1018.94
2018-02-10T00:09:24.452Z,1018.91
2018-02-10T00:10:24.430Z,1018.93
2018-02-10T00:11:24.410Z,1018.93
2018-02-10T00:12:24.398Z,1018.89
2018-02-10T00:13:24.388Z,1018.91
2018-02-10T00:14:24.438Z,1018.89
2018-02-10T00:15:24.414Z,1018.93
2018-02-10T00:16:24.401Z,1018.9
2018-02-10T00:17:24.386Z,1018.91
2018-02-10T00:18:24.390Z,1018.92
2018-02-10T00:19:24.413Z,1018.91
2018-02-10T00:20:24.405Z,1018.97
2018-02-10T00:21:24.374Z,1019
2018-02-10T00:22:24.384Z,1018.99
2018-02-10T00:23:24.425Z,1018.96
2018-02-10T00:24:24.474Z,1018.97
2018-02-10T00:25:24.401Z,1018.95
2018-02-10T00:26:24.416Z,1019.01
2018-02-10T00:27:24.384Z,1018.98
2018-02-10T00:28:24.403Z,1018.99
2018-02-10T00:29:24.388Z,1018.98
2018-02-10T00:30:24.381Z,1018.98
2018-02-10T00:31:24.363Z,1018.97
2018-02-10T00:32:24.408Z,1018.95
2018-02-10T00:33:24.421Z,1018.93
2018-02-10T00:34:24.457Z,1018.93
2018-02-10T00:35:24.369Z,1018.97
2018-02-10T00:36:24.422Z,1019.02
2018-02-10T00:37:24.432Z,1019.04
2018-02-10T00:38:24.436Z,1019.07
2018-02-10T00:39:24.467Z,1019.1
2018-02-10T00:40:24.405Z,1019.09
2018-02-10T00:41:24.401Z,1019.09
2018-02-10T00:42:24.410Z,1019.08
2018-02-10T00:43:24.426Z,1019.12
2018-02-10T00:44:24.396Z,1019.11
2018-02-10T00:45:24.448Z,1019.13
2018-02-10T00:46:24.402Z,1019.11
2018-02-10T00:47:24.453Z,1019.12
2018-02-10T00:48:24.425Z,1019.11
2018-02-10T00:49:24.433Z,1019.1
2018-02-10T00:50:24.409Z,1019.07
2018-02-10T00:51:24.442Z,1019.11
2018-02-10T00:52:24.406Z,1019.12
2018-02-10T00:53:24.463Z,1019.11
2018-02-10T00:54:24.411Z,1019.12
2018-02-10T00:55:24.545Z,1019.14
2018-02-10T00:56:24.403Z,1019.14
2018-02-10T00:57:24.411Z,1019.12
2018-02-10T00:58:24.392Z,1019.13
2018-02-10T00:59:24.444Z,1019.11
2018-02-10T01:00:24.463Z,1019.15
2018-02-10T01:01:24.504Z,1019.15
2018-02-10T01:02:24.450Z,1019.15
2018-02-10T01:03:24.390Z,1019.13
2018-02-10T01:04:24.512Z,1019.18
2018-02-10T01:05:24.430Z,1019.18
2018-02-10T01:06:24.482Z,1019.16
2018-02-10T01:07:24.397Z,1019.16
2018-02-10T01:08:24.283Z,1019.19
2018-02-10T01:09:24.232Z,1019.23
2018-02-10T01:10:24.247Z,1019.21
2018-02-10T01:11:24.502Z,1019.17
2018-02-10T01:12:24.238Z,1019.2
2018-02-10T01:13:24.243Z,1019.24
2018-02-10T01:14:24.272Z,1019.19
2018-02-10T01:15:24.329Z,1019.22
2018-02-10T01:16:24.285Z,1019.25
2018-02-10T01:17:24.280Z,1019.22
2018-02-10T01:18:24.202Z,1019.19
2018-02-10T01:19:24.241Z,1019.17
2018-02-10T01:20:24.275Z,1019.19
2018-02-10T01:21:24.283Z,1019.16
2018-02-10T01:22:24.279Z,1019.12
2018-02-10T01:23:24.321Z,1019.11
2018-02-10T01:24:24.236Z,1019.07
2018-02-10T01:25:24.270Z,1019.07
2018-02-10T01:26:24.267Z,1019.05
2018-02-10T01:27:24.261Z,1019.09
2018-02-10T01:28:24.231Z,1019.17
2018-02-10T01:29:24.260Z,1019.18
2018-02-10T01:30:24.241Z,1019.19
2018-02-10T01:31:24.284Z,1019.22
2018-02-10T01:32:24.282Z,1019.21
2018-02-10T01:33:24.225Z,1019.23
2018-02-10T01:34:24.263Z,1019.25
2018-02-10T01:35:24.291Z,1019.25
2018-02-10T01:36:24.311Z,1019.21
2018-02-10T01:37:24.243Z,1019.26
2018-02-10T01:38:24.235Z,1019.22
2018-02-10T01:39:25.054Z,1019.25
2018-02-10T01:40:25.051Z,1019.23
2018-02-10T01:41:25.026Z,1019.22
2018-02-10T01:42:25.088Z,1019.22
2018-02-10T01:43:25.084Z,1019.19
2018-02-10T01:44:25.030Z,1019.2
2018-02-10T01:45:25.069Z,1019.18
2018-02-10T01:46:25.092Z,1019.2
2018-02-10T01:47:25.065Z,1019.14
2018-02-10T01:48:25.021Z,1019.2
2018-02-10T01:49:25.083Z,1019.22
2018-02-10T01:50:25.056Z,1019.19
2018-02-10T01:51:25.073Z,1019.22
2018-02-10T01:52:25.154Z,1019.23
2018-02-10T01:53:25.092Z,1019.25
2018-02-10T01:54:24.998Z,1019.2
2018-02-10T01:55:25.055Z,1019.21
2018-02-10T01:56:25.036Z,1019.22
2018-02-10T01:57:25.055Z,1019.2
2018-02-10T01:58:25.034Z,1019.2
2018-02-10T01:59:25.145Z,1019.19
2018-02-10T02:00:25.049Z,1019.17
2018-02-10T02:01:25.072Z,1019.15
2018-02-10T02:02:25.032Z,1019.18
2018-02-10T02:03:25.020Z,1019.16
2018-02-10T02:04:25.042Z,1019.16
2018-02-10T02:05:25.151Z,1019.17
2018-02-10T02:06:25.063Z,1019.2
2018-02-10T02:07:25.047Z,1019.17
2018-02-10T02:08:25.020Z,1019.17
2018-02-10T02:09:24.715Z,1019.18
2018-02-10T02:10:24.792Z,1019.18
2018-02-10T02:11:24.702Z,1019.16
2018-02-10T02:12:24.735Z,1019.17
2018-02-10T02:13:24.751Z,1019.18
2018-02-10T02:14:24.685Z,1019.21
2018-02-10T02:15:24.763Z,1019.17
2018-02-10T02:16:24.726Z,1019.15
2018-02-10T02:17:24.762Z,1019.15
2018-02-10T02:18:24.782Z,1019.18
2018-02-10T02:19:24.706Z,1019.16
2018-02-10T02:20:24.770Z,1019.14
2018-02-10T02:21:24.774Z,1019.19
2018-02-10T02:22:24.739Z,1019.18
2018-02-10T02:23:24.769Z,1019.17
2018-02-10T02:24:24.822Z,1019.17
2018-02-10T02:25:24.769Z,1019.18
2018-02-10T02:26:24.726Z,1019.17
2018-02-10T02:27:24.753Z,1019.22
2018-02-10T02:28:24.779Z,1019.21
2018-02-10T02:29:24.758Z,1019.21
2018-02-10T02:30:24.764Z,1019.22
2018-02-10T02:31:24.739Z,1019.23
2018-02-10T02:32:24.792Z,1019.22
2018-02-10T02:33:24.757Z,1019.26
2018-02-10T02:34:24.750Z,1019.27
2018-02-10T02:35:24.715Z,1019.3
2018-02-10T02:36:24.784Z,1019.29
2018-02-10T02:37:24.734Z,1019.3
2018-02-10T02:38:24.768Z,1019.33
2018-02-10T02:39:24.722Z,1019.31
2018-02-10T02:40:24.584Z,1019.32
2018-02-10T02:41:24.558Z,1019.31
2018-02-10T02:42:24.527Z,1019.3
2018-02-10T02:43:24.668Z,1019.28
2018-02-10T02:44:24.592Z,1019.26
2018-02-10T02:45:24.633Z,1019.28
2018-02-10T02:46:24.514Z,1019.29
2018-02-10T02:47:24.587Z,1019.28
2018-02-10T02:48:24.573Z,1019.27
2018-02-10T02:49:24.569Z,1019.26
2018-02-10T02:50:24.606Z,1019.31
2018-02-10T02:51:24.582Z,1019.3
2018-02-10T02:52:24.569Z,1019.33
2018-02-10T02:53:24.525Z,1019.32
2018-02-10T02:54:24.629Z,1019.32
2018-02-10T02:55:24.577Z,1019.24
2018-02-10T02:56:24.552Z,1019.26
2018-02-10T02:57:24.614Z,1019.28
2018-02-10T02:58:24.564Z,1019.24
2018-02-10T02:59:24.586Z,1019.26
2018-02-10T03:00:24.558Z,1019.25
2018-02-10T03:01:24.562Z,1019.23
2018-02-10T03:02:24.568Z,1019.27
2018-02-10T03:03:24.585Z,1019.22
2018-02-10T03:04:24.665Z,1019.22
2018-02-10T03:05:24.572Z,1019.23
2018-02-10T03:06:24.568Z,1019.26
2018-02-10T03:07:24.583Z,1019.24
2018-02-10T03:08:24.592Z,1019.21
2018-02-10T03:09:24.572Z,1019.25
2018-02-10T03:10:24.540Z,1019.29
2018-02-10T03:11:24.338Z,1019.26
2018-02-10T03:12:24.351Z,1019.31
2018-02-10T03:13:24.340Z,1019.31
2018-02-10T03:14:24.372Z,1019.32
2018-02-10T03:15:24.387Z,1019.34
2018-02-10T03:16:24.339Z,1019.36
2018-02-10T03:17:24.346Z,1019.34
2018-02-10T03:18:24.322Z,1019.32
2018-02-10T03:19:24.384Z,1019.36
2018-02-10T03:20:24.361Z,1019.36
2018-02-10T03:21:24.371Z,1019.34
2018-02-10T03:22:24.302Z,1019.37
2018-02-10T03:23:24.327Z,1019.35
2018-02-10T03:24:24.359Z,1019.36
2018-02-10T03:25:24.342Z,1019.34
2018-02-10T03:26:24.330Z,1019.38
2018-02-10T03:27:24.322Z,1019.34
2018-02-10T03:28:24.355Z,1019.39
2018-02-10T03:29:24.388Z,1019.39
2018-02-10T03:30:24.397Z,1019.37
2018-02-10T03:31:24.350Z,1019.37
2018-02-10T03:32:24.347Z,1019.36
2018-02-10T03:33:24.316Z,1019.38
2018-02-10T03:34:24.349Z,1019.4
2018-02-10T03:35:24.366Z,1019.38
2018-02-10T03:36:24.373Z,1019.41
2018-02-10T03:37:24.322Z,1019.39
2018-02-10T03:38:24.340Z,1019.38
2018-02-10T03:39:24.382Z,1019.42
2018-02-10T03:40:24.364Z,1019.4
2018-02-10T03:41:24.366Z,1019.42
2018-02-10T03:42:24.188Z,1019.46
2018-02-10T03:43:24.152Z,1019.42
2018-02-10T03:44:24.164Z,1019.45
2018-02-10T03:45:24.178Z,1019.44
2018-02-10T03:46:24.163Z,1019.5
2018-02-10T03:47:24.173Z,1019.46
2018-02-10T03:48:24.181Z,1019.49
2018-02-10T03:49:24.199Z,1019.49
2018-02-10T03:50:24.152Z,1019.49
2018-02-10T03:51:24.416Z,1019.54
2018-02-10T03:52:24.217Z,1019.53
2018-02-10T03:53:24.112Z,1019.54
2018-02-10T03:54:24.096Z,1019.57
2018-02-10T03:55:24.187Z,1019.59
2018-02-10T03:56:24.182Z,1019.6
2018-02-10T03:57:24.202Z,1019.59
2018-02-10T03:58:24.171Z,1019.62
2018-02-10T03:59:24.155Z,1019.6
2018-02-10T04:00:24.164Z,1019.58
2018-02-10T04:01:24.129Z,1019.58
2018-02-10T04:02:24.176Z,1019.57
2018-02-10T04:03:24.180Z,1019.62
2018-02-10T04:04:24.201Z,1019.6
2018-02-10T04:05:24.133Z,1019.62
2018-02-10T04:06:24.204Z,1019.59
2018-02-10T04:07:24.181Z,1019.61
2018-02-10T04:08:24.184Z,1019.57
2018-02-10T04:09:24.174Z,1019.57
2018-02-10T04:10:24.164Z,1019.6
2018-02-10T04:11:24.193Z,1019.59
2018-02-10T04:12:24.141Z,1019.62
2018-02-10T04:13:25.043Z,1019.6
2018-02-10T04:14:24.984Z,1019.61
2018-02-10T04:15:25.019Z,1019.62
2018-02-10T04:16:25.067Z,1019.63
2018-02-10T04:17:25.006Z,1019.64
2018-02-10T04:18:25.035Z,1019.64
2018-02-10T04:19:24.988Z,1019.65
2018-02-10T04:20:24.995Z,1019.6
2018-02-10T04:21:25.188Z,1019.66
2018-02-10T04:22:25.055Z,1019.69
2018-02-10T04:23:25.034Z,1019.67
2018-02-10T04:24:25.129Z,1019.66
2018-02-10T04:25:24.986Z,1019.65
2018-02-10T04:26:25.077Z,1019.64
2018-02-10T04:27:25.024Z,1019.7
2018-02-10T04:28:25.056Z,1019.67
2018-02-10T04:29:25.045Z,1019.62
2018-02-10T04:30:24.996Z,1019.66
2018-02-10T04:31:25.008Z,1019.7
2018-02-10T04:32:25.022Z,1019.63
2018-02-10T04:33:24.953Z,1019.68
2018-02-10T04:34:25.020Z,1019.69
2018-02-10T04:35:25.055Z,1019.67
2018-02-10T04:36:25.072Z,1019.69
2018-02-10T04:37:24.990Z,1019.67
2018-02-10T04:38:25.057Z,1019.63
2018-02-10T04:39:25.059Z,1019.67
2018-02-10T04:40:25.001Z,1019.66
2018-02-10T04:41:25.032Z,1019.68
2018-02-10T04:42:25.048Z,1019.66
2018-02-10T04:43:24.907Z,1019.67
2018-02-10T04:44:24.958Z,1019.68
2018-02-10T04:45:24.985Z,1019.7
2018-02-10T04:46:24.951Z,1019.74
2018-02-10T04:47:24.964Z,1019.75
2018-02-10T04:48:24.913Z,1019.77
2018-02-10T04:49:24.949Z,1019.75
2018-02-10T04:50:24.892Z,1019.79
2018-02-10T04:51:24.944Z,1019.76
2018-02-10T04:52:25.100Z,1019.78
2018-02-10T04:53:24.946Z,1019.81
2018-02-10T04:54:24.861Z,1019.84
2018-02-10T04:55:24.952Z,1019.84
2018-02-10T04:56:24.885Z,1019.83
2018-02-10T04:57:24.924Z,1019.89
2018-02-10T04:58:24.944Z,1019.85
2018-02-10T04:59:24.916Z,1019.84
2018-02-10T05:00:24.957Z,1019.85
2018-02-10T05:01:24.925Z,1019.86
2018-02-10T05:02:24.931Z,1019.81
2018-02-10T05:03:24.913Z,1019.82
2018-02-10T05:04:24.935Z,1019.85
2018-02-10T05:05:24.933Z,1019.85
2018-02-10T05:06:24.944Z,1019.84
2018-02-10T05:07:24.977Z,1019.87
2018-02-10T05:08:24.959Z,1019.84
2018-02-10T05:09:24.951Z,1019.85
2018-02-10T05:10:24.888Z,1019.85
2018-02-10T05:11:24.928Z,1019.87
2018-02-10T05:12:24.886Z,1019.9
2018-02-10T05:13:24.943Z,1019.9
2018-02-10T05:14:24.853Z,1019.87
2018-02-10T05:15:24.917Z,1019.87
2018-02-10T05:16:24.882Z,1019.86
2018-02-10T05:17:24.829Z,1019.91
2018-02-10T05:18:24.854Z,1019.91
2018-02-10T05:19:24.871Z,1019.91
2018-02-10T05:20:24.786Z,1019.94
2018-02-10T05:21:24.852Z,1019.9
2018-02-10T05:22:24.855Z,1019.89
2018-02-10T05:23:24.871Z,1019.92
2018-02-10T05:24:24.864Z,1019.87
2018-02-10T05:25:24.849Z,1019.87
2018-02-10T05:26:24.809Z,1019.89
2018-02-10T05:27:24.772Z,1019.93
2018-02-10T05:28:24.861Z,1019.89
2018-02-10T05:29:24.850Z,1019.88
2018-02-10T05:30:24.834Z,1019.87
2018-02-10T05:31:24.867Z,1019.85
2018-02-10T05:32:24.859Z,1019.88
2018-02-10T05:33:24.861Z,1019.92
2018-02-10T05:34:24.861Z,1019.91
2018-02-10T05:35:24.832Z,1019.92
2018-02-10T05:36:24.813Z,1019.94
2018-02-10T05:37:24.867Z,1019.95
2018-02-10T05:38:24.815Z,1020.02
2018-02-10T05:39:24.786Z,1020
2018-02-10T05:40:24.809Z,1019.96
2018-02-10T05:41:24.809Z,1019.99
2018-02-10T05:42:24.837Z,1019.98
2018-02-10T05:43:24.911Z,1019.99
2018-02-10T05:44:24.882Z,1019.96
2018-02-10T05:45:24.624Z,1020.01
2018-02-10T05:46:24.683Z,1019.99
2018-02-10T05:47:24.666Z,1020.02
2018-02-10T05:48:24.755Z,1020.02
2018-02-10T05:49:24.683Z,1020.04
2018-02-10T05:50:24.628Z,1020.05
2018-02-10T05:51:24.695Z,1020.05
2018-02-10T05:52:24.704Z,1020.1
2018-02-10T05:53:24.664Z,1020.1
2018-02-10T05:54:24.654Z,1020.08
2018-02-10T05:55:24.645Z,1020.11
2018-02-10T05:56:24.676Z,1020.12
2018-02-10T05:57:24.703Z,1020.13
2018-02-10T05:58:24.938Z,1020.15
2018-02-10T05:59:24.684Z,1020.19
2018-02-10T06:00:24.632Z,1020.19
2018-02-10T06:01:24.679Z,1020.18
2018-02-10T06:02:24.680Z,1020.19
2018-02-10T06:03:24.707Z,1020.2
2018-02-10T06:04:24.698Z,1020.26
2018-02-10T06:05:24.726Z,1020.19
2018-02-10T06:06:24.744Z,1020.25
2018-02-10T06:07:24.669Z,1020.27
2018-02-10T06:08:24.642Z,1020.29
2018-02-10T06:09:24.661Z,1020.34
2018-02-10T06:10:24.620Z,1020.28
2018-02-10T06:11:24.683Z,1020.32
2018-02-10T06:12:24.673Z,1020.34
2018-02-10T06:13:24.734Z,1020.37
2018-02-10T06:14:24.701Z,1020.35
2018-02-10T06:15:24.754Z,1020.34
2018-02-10T06:16:24.633Z,1020.36
2018-02-10T06:17:24.614Z,1020.4
2018-02-10T06:18:24.622Z,1020.38
2018-02-10T06:19:24.625Z,1020.35
2018-02-10T06:20:24.605Z,1020.38
2018-02-10T06:21:24.610Z,1020.38
2018-02-10T06:22:24.615Z,1020.37
2018-02-10T06:23:24.610Z,1020.42
2018-02-10T06:24:24.656Z,1020.37
2018-02-10T06:25:24.637Z,1020.43
2018-02-10T06:26:24.625Z,1020.41
2018-02-10T06:27:24.628Z,1020.46
2018-02-10T06:28:24.588Z,1020.45
2018-02-10T06:29:24.613Z,1020.45
2018-02-10T06:30:24.592Z,1020.44
2018-02-10T06:31:24.586Z,1020.46
2018-02-10T06:32:24.596Z,1020.46
2018-02-10T06:33:24.620Z,1020.48
2018-02-10T06:34:24.627Z,1020.51
2018-02-10T06:35:24.593Z,1020.46
2018-02-10T06:36:24.609Z,1020.49
2018-02-10T06:37:24.628Z,1020.49
2018-02-10T06:38:24.646Z,1020.49
2018-02-10T06:39:24.685Z,1020.54
2018-02-10T06:40:24.656Z,1020.51
2018-02-10T06:41:24.653Z,1020.48
2018-02-10T06:42:24.605Z,1020.51
2018-02-10T06:43:24.598Z,1020.53
2018-02-10T06:44:24.633Z,1020.57
2018-02-10T06:45:24.591Z,1020.58
2018-02-10T06:46:24.584Z,1020.57
2018-02-10T06:47:24.334Z,1020.59
2018-02-10T06:48:24.318Z,1020.61
2018-02-10T06:49:24.278Z,1020.59
2018-02-10T06:50:24.286Z,1020.62
2018-02-10T06:51:24.312Z,1020.63
2018-02-10T06:52:24.319Z,1020.65
2018-02-10T06:53:24.317Z,1020.67
2018-02-10T06:54:24.332Z,1020.64
2018-02-10T06:55:24.390Z,1020.66
2018-02-10T06:58:27.378Z,1020.74
2018-02-10T06:59:24.342Z,1020.69
2018-02-10T07:00:24.304Z,1020.69
2018-02-10T07:01:24.303Z,1020.7
2018-02-10T07:02:24.332Z,1020.7
2018-02-10T07:03:24.319Z,1020.72
2018-02-10T07:04:24.346Z,1020.75
2018-02-10T07:05:24.433Z,1020.76
2018-02-10T07:06:24.352Z,1020.77
2018-02-10T07:07:24.420Z,1020.75
2018-02-10T07:08:24.356Z,1020.84
2018-02-10T07:09:24.321Z,1020.78
2018-02-10T07:10:24.344Z,1020.82
2018-02-10T07:11:24.344Z,1020.8
2018-02-10T07:12:24.366Z,1020.83
2018-02-10T07:13:25.115Z,1020.8
2018-02-10T07:14:24.372Z,1020.83
2018-02-10T07:15:24.348Z,1020.8
2018-02-10T07:16:24.295Z,1020.81
2018-02-10T07:17:24.430Z,1020.84
2018-02-10T07:18:24.344Z,1020.73
2018-02-10T07:19:24.296Z,1020.76
2018-02-10T07:20:24.369Z,1020.77
2018-02-10T07:21:24.309Z,1020.73
2018-02-10T07:22:24.395Z,1020.75
2018-02-10T07:23:24.262Z,1020.75
2018-02-10T07:24:24.320Z,1020.79
2018-02-10T07:25:24.300Z,1020.78
2018-02-10T07:26:24.307Z,1020.83
2018-02-10T07:27:24.346Z,1020.79
2018-02-10T07:28:24.333Z,1020.84
2018-02-10T07:31:24.707Z,1020.85
2018-02-10T07:32:24.329Z,1020.85
2018-02-10T07:33:24.289Z,1020.87
2018-02-10T07:34:24.323Z,1020.89
2018-02-10T07:35:24.354Z,1020.93
2018-02-10T07:36:24.308Z,1020.94
2018-02-10T07:37:24.318Z,1020.91
2018-02-10T07:38:24.324Z,1020.98
2018-02-10T07:39:24.315Z,1020.93
2018-02-10T07:40:24.349Z,1020.94
2018-02-10T07:41:24.292Z,1020.97
2018-02-10T07:42:24.319Z,1020.98
2018-02-10T07:43:24.315Z,1020.97
2018-02-10T07:44:24.356Z,1020.99
2018-02-10T07:45:24.361Z,1020.96
2018-02-10T07:46:24.350Z,1020.99
2018-02-10T07:47:24.296Z,1020.96
2018-02-10T07:48:24.299Z,1020.95
2018-02-10T07:49:24.093Z,1021.03
2018-02-10T07:50:24.152Z,1020.99
2018-02-10T07:51:24.069Z,1021
2018-02-10T07:52:24.110Z,1020.97
2018-02-10T07:53:24.109Z,1021
2018-02-10T07:54:24.118Z,1021.05
2018-02-10T07:55:24.190Z,1021.02
2018-02-10T07:56:24.120Z,1021
2018-02-10T07:57:24.240Z,1021.08
2018-02-10T07:58:24.156Z,1021.04
2018-02-10T07:59:24.093Z,1021.08
2018-02-10T08:00:24.298Z,1021.07
2018-02-10T08:01:28.156Z,1021.09
2018-02-10T08:02:24.130Z,1021.04
2018-02-10T08:03:24.123Z,1021.14
2018-02-10T08:04:24.146Z,1021.11
2018-02-10T08:05:24.113Z,1021.11
2018-02-10T08:06:24.102Z,1021.1
2018-02-10T08:07:24.146Z,1021.08
2018-02-10T08:08:24.136Z,1021.03
2018-02-10T08:09:24.076Z,1021.01
2018-02-10T08:10:24.123Z,1021.09
2018-02-10T08:11:24.141Z,1021.06
2018-02-10T08:12:24.137Z,1021.03
2018-02-10T08:13:24.131Z,1021.08
2018-02-10T08:14:24.112Z,1021.15
2018-02-10T08:15:24.148Z,1021.13
2018-02-10T08:16:24.094Z,1021.13
2018-02-10T08:17:24.183Z,1021.14
2018-02-10T08:18:24.133Z,1021.13
2018-02-10T08:19:24.112Z,1021.11
2018-02-10T08:20:25.174Z,1021.12
2018-02-10T08:21:25.108Z,1021.11
2018-02-10T08:22:25.118Z,1021.09
2018-02-10T08:23:25.115Z,1021.12
2018-02-10T08:24:25.149Z,1021.12
2018-02-10T08:25:25.111Z,1021.17
2018-02-10T08:26:24.996Z,1021.2
2018-02-10T08:27:25.029Z,1021.23
2018-02-10T08:28:25.027Z,1021.24
2018-02-10T08:29:25.036Z,1021.26
2018-02-10T08:30:25.083Z,1021.27
2018-02-10T08:31:24.992Z,1021.25
2018-02-10T08:32:25.017Z,1021.23
2018-02-10T08:33:25.036Z,1021.22
2018-02-10T08:34:24.997Z,1021.29
2018-02-10T08:35:25.066Z,1021.25
2018-02-10T08:36:25.037Z,1021.28
2018-02-10T08:37:25.044Z,1021.26
2018-02-10T08:38:25.021Z,1021.28
2018-02-10T08:39:25.045Z,1021.27
2018-02-10T08:40:25.053Z,1021.29
2018-02-10T08:41:25.045Z,1021.26
2018-02-10T08:42:25.055Z,1021.28
2018-02-10T08:43:25.150Z,1021.29
2018-02-10T08:44:25.009Z,1021.29
2018-02-10T08:45:25.026Z,1021.3
2018-02-10T08:46:25.006Z,1021.31
2018-02-10T08:47:25.016Z,1021.29
2018-02-10T08:48:25.031Z,1021.32
2018-02-10T08:49:25.032Z,1021.34
2018-02-10T08:50:24.849Z,1021.31
2018-02-10T08:51:24.886Z,1021.35
2018-02-10T08:52:24.870Z,1021.34
2018-02-10T08:53:24.893Z,1021.34
2018-02-10T08:54:24.919Z,1021.35
2018-02-10T08:55:24.891Z,1021.35
2018-02-10T08:56:24.965Z,1021.35
2018-02-10T08:57:24.866Z,1021.4
2018-02-10T08:58:24.912Z,1021.38
2018-02-10T08:59:25.225Z,1021.35
2018-02-10T09:00:24.857Z,1021.38
2018-02-10T09:01:24.901Z,1021.38
2018-02-10T09:02:24.919Z,1021.39
2018-02-10T09:03:24.902Z,1021.38
2018-02-10T09:04:24.922Z,1021.42
2018-02-10T09:05:24.872Z,1021.42
2018-02-10T09:06:24.879Z,1021.43
2018-02-10T09:07:24.908Z,1021.39
2018-02-10T09:08:24.879Z,1021.4
2018-02-10T09:09:24.871Z,1021.42
2018-02-10T09:10:25.176Z,1021.42
2018-02-10T09:11:24.933Z,1021.41
2018-02-10T09:12:24.852Z,1021.42
2018-02-10T09:13:24.887Z,1021.43
2018-02-10T09:14:24.908Z,1021.41
2018-02-10T09:15:24.915Z,1021.44
2018-02-10T09:16:24.888Z,1021.42
2018-02-10T09:17:24.908Z,1021.43
2018-02-10T09:18:24.902Z,1021.44
2018-02-10T09:19:24.877Z,1021.44
2018-02-10T09:20:24.902Z,1021.44
2018-02-10T09:21:24.889Z,1021.41
2018-02-10T09:22:24.722Z,1021.43
2018-02-10T09:23:24.747Z,1021.39
2018-02-10T09:24:24.716Z,1021.36
2018-02-10T09:25:24.767Z,1021.4
2018-02-10T09:26:24.785Z,1021.37
2018-02-10T09:27:24.726Z,1021.37
2018-02-10T09:28:24.780Z,1021.39
2018-02-10T09:29:24.783Z,1021.38
2018-02-10T09:30:24.840Z,1021.37
2018-02-10T09:31:24.788Z,1021.38
2018-02-10T09:32:24.790Z,1021.38
2018-02-10T09:33:24.816Z,1021.42
2018-02-10T09:34:24.726Z,1021.42
2018-02-10T09:35:24.701Z,1021.43
2018-02-10T09:36:24.729Z,1021.43
2018-02-10T09:37:24.757Z,1021.43
2018-02-10T09:38:24.742Z,1021.43
2018-02-10T09:39:24.839Z,1021.45
2018-02-10T09:40:24.685Z,1021.46
2018-02-10T09:41:24.714Z,1021.47
2018-02-10T09:42:24.722Z,1021.5
2018-02-10T09:43:24.740Z,1021.47
2018-02-10T09:44:24.765Z,1021.47
2018-02-10T09:45:24.709Z,1021.49
2018-02-10T09:46:24.721Z,1021.48
2018-02-10T09:47:24.803Z,1021.5
2018-02-10T09:48:24.769Z,1021.52
2018-02-10T09:49:24.745Z,1021.54
2018-02-10T09:50:24.813Z,1021.54
2018-02-10T09:51:24.932Z,1021.5
2018-02-10T09:52:24.927Z,1021.54
2018-02-10T09:53:24.973Z,1021.59
2018-02-10T09:54:24.872Z,1021.55
2018-02-10T09:55:24.898Z,1021.54
2018-02-10T09:56:24.927Z,1021.6
2018-02-10T09:57:24.886Z,1021.58
2018-02-10T09:58:24.840Z,1021.56
2018-02-10T09:59:24.845Z,1021.55
2018-02-10T10:00:24.829Z,1021.52
2018-02-10T10:01:24.882Z,1021.53
2018-02-10T10:02:24.883Z,1021.54
2018-02-10T10:03:24.890Z,1021.51
2018-02-10T10:04:24.886Z,1021.47
2018-02-10T10:05:24.877Z,1021.47
2018-02-10T10:06:24.871Z,1021.49
2018-02-10T10:07:24.875Z,1021.47
2018-02-10T10:08:24.899Z,1021.42
2018-02-10T10:09:24.906Z,1021.46
2018-02-10T10:10:24.857Z,1021.42
2018-02-10T10:11:24.945Z,1021.44
2018-02-10T10:12:24.893Z,1021.45
2018-02-10T10:13:24.900Z,1021.43
2018-02-10T10:14:24.913Z,1021.45
2018-02-10T10:15:24.912Z,1021.41
2018-02-10T10:16:24.858Z,1021.42
2018-02-10T10:17:24.897Z,1021.41
2018-02-10T10:18:24.890Z,1021.44
2018-02-10T10:19:24.897Z,1021.41
2018-02-10T10:20:24.883Z,1021.42
2018-02-10T10:21:24.946Z,1021.43
2018-02-10T10:22:24.794Z,1021.38
2018-02-10T10:23:25.466Z,1021.4
2018-02-10T10:24:24.877Z,1021.39
2018-02-10T10:25:24.834Z,1021.37
2018-02-10T10:26:24.826Z,1021.38
2018-02-10T10:27:25.156Z,1021.38
2018-02-10T10:28:24.837Z,1021.4
2018-02-10T10:29:24.833Z,1021.36
2018-02-10T10:30:24.865Z,1021.39
2018-02-10T10:31:24.805Z,1021.37
2018-02-10T10:32:24.863Z,1021.4
2018-02-10T10:33:25.196Z,1021.39
2018-02-10T10:34:24.795Z,1021.39
2018-02-10T10:35:24.815Z,1021.46
2018-02-10T10:36:24.786Z,1021.39
2018-02-10T10:37:24.836Z,1021.44
2018-02-10T10:38:25.027Z,1021.45
2018-02-10T10:39:24.833Z,1021.45
2018-02-10T10:40:24.842Z,1021.52
2018-02-10T10:41:24.842Z,1021.51
2018-02-10T10:42:24.861Z,1021.47
2018-02-10T10:43:24.886Z,1021.47
2018-02-10T10:44:24.857Z,1021.48
2018-02-10T10:45:25.135Z,1021.46
2018-02-10T10:46:24.875Z,1021.5
2018-02-10T10:47:24.793Z,1021.46
2018-02-10T10:48:24.768Z,1021.48
2018-02-10T10:49:24.827Z,1021.5
2018-02-10T10:50:24.844Z,1021.48
2018-02-10T10:51:24.781Z,1021.46
2018-02-10T10:52:24.805Z,1021.47
2018-02-10T10:53:24.710Z,1021.45
2018-02-10T10:54:24.726Z,1021.47
2018-02-10T10:55:25.293Z,1021.51
2018-02-10T10:56:24.721Z,1021.49
2018-02-10T10:57:24.745Z,1021.49
2018-02-10T10:58:26.124Z,1021.46
2018-02-10T10:59:26.807Z,1021.43
2018-02-10T11:00:25.875Z,1021.46
2018-02-10T11:01:24.699Z,1021.47
2018-02-10T11:02:24.740Z,1021.46
2018-02-10T11:03:24.676Z,1021.47
2018-02-10T11:04:24.735Z,1021.45
2018-02-10T11:05:24.765Z,1021.45
2018-02-10T11:06:24.762Z,1021.45
2018-02-10T11:07:24.718Z,1021.43
2018-02-10T11:08:25.628Z,1021.43
2018-02-10T11:09:24.727Z,1021.46
2018-02-10T11:10:24.689Z,1021.41
2018-02-10T11:11:24.774Z,1021.41
2018-02-10T11:12:24.759Z,1021.39
2018-02-10T11:13:25.473Z,1021.38
2018-02-10T11:14:24.744Z,1021.38
2018-02-10T11:15:24.760Z,1021.39
2018-02-10T11:16:24.795Z,1021.37
2018-02-10T11:17:24.843Z,1021.37
2018-02-10T11:18:24.711Z,1021.34
2018-02-10T11:19:24.722Z,1021.36
2018-02-10T11:20:24.725Z,1021.32
2018-02-10T11:21:24.728Z,1021.37
2018-02-10T11:22:24.734Z,1021.32
2018-02-10T11:23:24.279Z,1021.28
2018-02-10T11:24:24.208Z,1021.3
2018-02-10T11:25:24.213Z,1021.29
2018-02-10T11:26:24.278Z,1021.27
2018-02-10T11:27:24.251Z,1021.32
2018-02-10T11:28:24.323Z,1021.28
2018-02-10T11:29:24.304Z,1021.24
2018-02-10T11:30:25.355Z,1021.27
2018-02-10T11:31:24.601Z,1021.24
2018-02-10T11:32:24.427Z,1021.23
2018-02-10T11:33:24.321Z,1021.25
2018-02-10T11:34:24.285Z,1021.21
2018-02-10T11:35:24.322Z,1021.21
2018-02-10T11:36:24.403Z,1021.22
2018-02-10T11:37:24.555Z,1021.22
2018-02-10T11:38:24.464Z,1021.22
2018-02-10T11:39:24.313Z,1021.19
2018-02-10T11:40:24.256Z,1021.22
2018-02-10T11:41:24.348Z,1021.16
2018-02-10T11:42:24.244Z,1021.17
2018-02-10T11:43:24.303Z,1021.17
2018-02-10T11:44:24.267Z,1021.12
2018-02-10T11:45:24.238Z,1021.14
2018-02-10T11:46:34.239Z,1021.15
2018-02-10T11:47:24.250Z,1021.14
2018-02-10T11:48:24.255Z,1021.19
2018-02-10T11:49:24.362Z,1021.17
2018-02-10T11:50:24.372Z,1021.14
2018-02-10T11:51:24.301Z,1021.16
2018-02-10T11:52:24.249Z,1021.19
2018-02-10T11:53:24.267Z,1021.16
2018-02-10T11:54:24.242Z,1021.18
2018-02-10T11:55:24.265Z,1021.16
2018-02-10T11:56:24.360Z,1021.18
2018-02-10T11:57:24.344Z,1021.19
2018-02-10T11:58:24.169Z,1021.18
2018-02-10T11:59:24.262Z,1021.18
2018-02-10T12:00:24.145Z,1021.2
2018-02-10T12:01:24.183Z,1021.24
2018-02-10T12:02:24.228Z,1021.22
2018-02-10T12:03:24.184Z,1021.24
2018-02-10T12:04:24.815Z,1021.26
2018-02-10T12:05:24.145Z,1021.23
2018-02-10T12:06:24.178Z,1021.27
2018-02-10T12:07:24.221Z,1021.23
2018-02-10T12:08:24.158Z,1021.22
2018-02-10T12:09:24.130Z,1021.18
2018-02-10T12:10:24.192Z,1021.25
2018-02-10T12:11:24.171Z,1021.2